Terminal Aerodrome Forecast
Issued by NWS

Home | Current Version | Previous Version | Text Only | Print | Product List | Glossary On
Versions: 1 2 3 4 5 6 7 8 9 10 11 12 13 14
054
FTPA31 PHFO 232048 AAA
TAFHJH
TAF AMD
PHJH 232048Z 2321/2418 04012KT P6SM FEW025 SCT050
     FM232200 04018G28KT P6SM FEW030 SCT060
     FM240600 04015G21KT P6SM FEW030 SCT060
      AMD NOT SKED AFT 240400=

USA.gov is the U.S. government's official web portal to all federal, state and local government web resources and services.